createdAt,value
2016-02-24T00:00:58.176Z,68.35
2016-02-24T00:01:58.194Z,68.35
2016-02-24T00:02:58.213Z,68.26
2016-02-24T00:03:58.216Z,69.11
2016-02-24T00:04:58.250Z,68.16
2016-02-24T00:05:58.252Z,67.97
2016-02-24T00:06:58.270Z,68.16
2016-02-24T00:07:58.289Z,68.35
2016-02-24T00:08:58.307Z,68.16
2016-02-24T00:09:58.325Z,69.02
2016-02-24T00:10:58.343Z,68.64
2016-02-24T00:11:58.346Z,69.3
2016-02-24T00:12:58.364Z,68.35
2016-02-24T00:13:58.383Z,68.54
2016-02-24T00:14:58.401Z,68.44
2016-02-24T00:15:58.403Z,69.11
2016-02-24T00:16:58.421Z,69.02
2016-02-24T00:17:58.440Z,68.64
2016-02-24T00:18:58.458Z,68.35
2016-02-24T00:19:58.477Z,68.54
2016-02-24T00:20:58.495Z,68.83
2016-02-24T00:21:58.342Z,69.02
2016-02-24T00:22:58.547Z,69.11
2016-02-24T00:23:58.535Z,68.92
2016-02-24T00:24:58.553Z,68.83
2016-02-24T00:25:58.571Z,68.83
2016-02-24T00:26:58.590Z,69.21
2016-02-24T00:27:58.498Z,69.02
2016-02-24T00:28:58.642Z,68.73
2016-02-24T00:29:58.629Z,68.83
2016-02-24T00:30:58.647Z,69.11
2016-02-24T00:31:58.666Z,68.92
2016-02-24T00:32:58.684Z,68.83
2016-02-24T00:33:58.702Z,69.21
2016-02-24T00:34:58.719Z,68.73
2016-02-24T00:35:58.728Z,68.83
2016-02-24T00:36:58.746Z,68.83
2016-02-24T00:37:58.765Z,68.92
2016-02-24T00:38:58.798Z,68.83
2016-02-24T00:39:58.801Z,68.92
2016-02-24T00:40:58.648Z,69.4
2016-02-24T00:41:58.837Z,68.83
2016-02-24T00:42:58.840Z,69.68
2016-02-24T00:43:58.843Z,69.02
2016-02-24T00:44:58.877Z,69.02
2016-02-24T00:45:58.880Z,69.4
2016-02-24T00:46:58.898Z,69.11
2016-02-24T00:47:58.917Z,69.49
2016-02-24T00:48:58.935Z,69.11
2016-02-24T00:49:58.953Z,68.92
2016-02-24T00:50:58.956Z,69.02
2016-02-24T00:51:58.989Z,69.02
2016-02-24T00:52:58.993Z,68.92
2016-02-24T00:53:59.011Z,69.02
2016-02-24T00:54:59.029Z,68.92
2016-02-24T00:55:59.047Z,69.02
2016-02-24T00:56:59.066Z,69.11
2016-02-24T00:57:59.068Z,69.02
2016-02-24T00:58:59.087Z,69.49
2016-02-24T00:59:59.105Z,69.21
2016-02-24T01:00:59.122Z,68.92
2016-02-24T01:01:59.142Z,68.73
2016-02-24T01:02:59.160Z,69.21
2016-02-24T01:03:59.163Z,68.92
2016-02-24T01:04:59.041Z,69.4
2016-02-24T01:05:59.231Z,69.11
2016-02-24T01:06:59.222Z,69.21
2016-02-24T01:07:59.241Z,69.02
2016-02-24T01:08:59.243Z,69.4
2016-02-24T01:09:59.262Z,69.4
2016-02-24T01:10:59.280Z,69.4
2016-02-24T01:11:59.298Z,69.21
2016-02-24T01:12:59.301Z,69.21
2016-02-24T01:13:59.319Z,69.21
2016-02-24T01:14:59.354Z,69.49
2016-02-24T01:15:59.356Z,69.4
2016-02-24T01:16:59.373Z,69.96
2016-02-24T01:17:59.376Z,69.02
2016-02-24T01:18:59.411Z,69.21
2016-02-24T01:19:59.429Z,69.49
2016-02-24T01:20:59.463Z,69.96
2016-02-24T01:21:59.450Z,69.96
2016-02-24T01:22:59.469Z,69.3
2016-02-24T01:23:59.487Z,69.4
2016-02-24T01:24:59.489Z,69.4
2016-02-24T01:25:59.523Z,69.11
2016-02-24T01:26:59.525Z,69.4
2016-02-24T01:27:59.545Z,69.68
2016-02-24T01:28:59.563Z,69.11
2016-02-24T01:29:59.597Z,69.4
2016-02-24T01:30:59.599Z,69.3
2016-02-24T01:31:59.602Z,69.4
2016-02-24T01:32:59.621Z,69.59
2016-02-24T01:33:59.639Z,69.78
2016-02-24T01:34:59.657Z,70.44
2016-02-24T01:35:59.675Z,69.4
2016-02-24T01:36:59.724Z,69.49
2016-02-24T01:37:59.697Z,69.96
2016-02-24T01:38:59.730Z,70.15
2016-02-24T01:39:59.733Z,69.78
2016-02-24T01:40:59.751Z,69.49
2016-02-24T01:41:59.770Z,70.06
2016-02-24T01:42:59.787Z,69.96
2016-02-24T01:43:59.791Z,69.78
2016-02-24T01:44:59.856Z,69.96
2016-02-24T01:45:59.826Z,69.78
2016-02-24T01:46:59.689Z,70.06
2016-02-24T01:47:59.864Z,70.15
2016-02-24T01:48:59.867Z,70.25
2016-02-24T01:49:59.884Z,69.78
2016-02-24T01:50:59.903Z,70.15
2016-02-24T01:51:59.922Z,70.06
2016-02-24T01:52:59.925Z,70.15
2016-02-24T01:53:59.959Z,69.78
2016-02-24T01:54:59.976Z,69.59
2016-02-24T01:55:59.978Z,70.15
2016-02-24T01:56:59.998Z,70.15
2016-02-24T01:58:00.016Z,69.78
2016-02-24T01:59:00.034Z,70.06
2016-02-24T02:00:00.069Z,70.15
2016-02-24T02:01:00.055Z,69.87
2016-02-24T02:02:00.089Z,69.68
2016-02-24T02:03:00.107Z,69.87
2016-02-24T02:04:00.110Z,70.06
2016-02-24T02:05:00.112Z,69.96
2016-02-24T02:06:00.130Z,69.87
2016-02-24T02:07:00.149Z,69.96
2016-02-24T02:08:00.168Z,69.87
2016-02-24T02:09:00.186Z,70.06
2016-02-24T02:10:00.235Z,70.25
2016-02-24T02:11:00.269Z,70.35
2016-02-24T02:12:00.241Z,70.44
2016-02-24T02:13:00.260Z,70.35
2016-02-24T02:14:00.262Z,70.15
2016-02-24T02:15:00.279Z,70.15
2016-02-24T02:16:00.283Z,70.35
2016-02-24T02:17:00.317Z,70.25
2016-02-24T02:18:00.335Z,69.68
2016-02-24T02:19:00.338Z,69.96
2016-02-24T02:20:00.356Z,69.68
2016-02-24T02:21:00.406Z,69.87
2016-02-24T02:22:00.393Z,69.68
2016-02-24T02:23:00.395Z,69.96
2016-02-24T02:24:00.414Z,69.87
2016-02-24T02:25:00.431Z,70.15
2016-02-24T02:26:00.467Z,69.78
2016-02-24T02:27:00.469Z,69.87
2016-02-24T02:28:00.487Z,69.96
2016-02-24T02:29:00.522Z,69.68
2016-02-24T02:30:00.509Z,70.25
2016-02-24T02:31:00.527Z,70.06
2016-02-24T02:32:00.545Z,70.06
2016-02-24T02:33:00.454Z,69.87
2016-02-24T02:34:00.581Z,69.96
2016-02-24T02:35:00.584Z,70.44
2016-02-24T02:36:00.618Z,70.35
2016-02-24T02:37:00.621Z,70.06
2016-02-24T02:38:00.638Z,70.44
2016-02-24T02:39:00.657Z,70.44
2016-02-24T02:40:00.691Z,70.44
2016-02-24T02:41:00.710Z,70.54
2016-02-24T02:42:00.696Z,70.35
2016-02-24T02:43:00.793Z,70.15
2016-02-24T02:44:00.718Z,70.15
2016-02-24T02:45:00.751Z,70.15
2016-02-24T02:46:00.770Z,70.44
2016-02-24T02:47:00.773Z,70.54
2016-02-24T02:48:00.838Z,70.35
2016-02-24T02:49:00.809Z,70.25
2016-02-24T02:50:00.828Z,70.25
2016-02-24T02:51:00.830Z,70.15
2016-02-24T02:52:00.865Z,70.15
2016-02-24T02:53:00.867Z,69.87
2016-02-24T02:54:00.884Z,70.44
2016-02-24T02:55:00.904Z,70.06
2016-02-24T02:56:00.922Z,70.25
2016-02-24T02:57:00.925Z,69.96
2016-02-24T02:58:00.943Z,70.63
2016-02-24T02:59:00.961Z,70.15
2016-02-24T03:00:00.979Z,70.35
2016-02-24T03:01:00.982Z,70.25
2016-02-24T03:02:01.047Z,70.35
2016-02-24T03:03:01.034Z,69.96
2016-02-24T03:04:01.052Z,70.25
2016-02-24T03:05:01.055Z,70.06
2016-02-24T03:06:01.074Z,70.25
2016-02-24T03:07:01.076Z,69.87
2016-02-24T03:08:01.095Z,69.87
2016-02-24T03:09:01.113Z,70.25
2016-02-24T03:10:01.178Z,70.06
2016-02-24T03:11:01.150Z,70.25
2016-02-24T03:12:01.183Z,69.96
2016-02-24T03:13:01.186Z,69.68
2016-02-24T03:14:01.205Z,70.35
2016-02-24T03:15:01.207Z,70.15
2016-02-24T03:16:01.226Z,70.15
2016-02-24T03:17:01.073Z,70.15
2016-02-24T03:18:01.264Z,70.35
2016-02-24T03:19:01.266Z,69.78
2016-02-24T03:20:01.284Z,70.54
2016-02-24T03:21:01.303Z,70.15
2016-02-24T03:22:01.321Z,70.15
2016-02-24T03:23:01.339Z,70.06
2016-02-24T03:24:01.341Z,70.35
2016-02-24T03:25:01.360Z,70.35
2016-02-24T03:26:01.378Z,69.87
2016-02-24T03:27:01.397Z,69.96
2016-02-24T03:28:01.415Z,70.06
2016-02-24T03:29:01.418Z,69.87
2016-02-24T03:30:01.451Z,69.68
2016-02-24T03:31:01.454Z,69.87
2016-02-24T03:32:01.473Z,69.68
2016-02-24T03:33:01.490Z,69.96
2016-02-24T03:34:01.493Z,70.25
2016-02-24T03:35:01.528Z,70.21
2016-02-24T03:36:01.530Z,70.03
2016-02-24T03:37:01.548Z,70.12
2016-02-24T03:38:01.567Z,70.25
2016-02-24T03:39:01.586Z,70.31
2016-02-24T03:40:01.601Z,70.21
2016-02-24T03:41:01.592Z,70.03
2016-02-24T03:42:01.598Z,70.4
2016-02-24T03:43:01.603Z,70.12
2016-02-24T03:44:01.610Z,70.03
2016-02-24T03:45:01.617Z,70.21
2016-02-24T03:46:01.617Z,70.21
2016-02-24T03:47:01.630Z,70.31
2016-02-24T03:48:01.644Z,70.12
2016-02-24T03:49:01.659Z,70.21
2016-02-24T03:50:01.672Z,70.12
2016-02-24T03:51:01.673Z,69.84
2016-02-24T03:52:01.706Z,69.93
2016-02-24T03:53:01.706Z,70.21
2016-02-24T03:54:01.724Z,70.12
2016-02-24T03:55:01.725Z,69.74
2016-02-24T03:56:01.758Z,70.21
2016-02-24T03:57:01.761Z,69.93
2016-02-24T03:58:01.778Z,70.12
2016-02-24T03:59:01.842Z,69.93
2016-02-24T04:00:01.813Z,70.12
2016-02-24T04:01:01.816Z,70.12
2016-02-24T04:02:01.834Z,70.31
2016-02-24T04:03:01.868Z,70.31
2016-02-24T04:04:01.870Z,70.21
2016-02-24T04:05:01.895Z,70.12
2016-02-24T04:06:01.897Z,70.21
2016-02-24T04:07:01.915Z,70.31
2016-02-24T04:08:01.934Z,69.65
2016-02-24T04:09:01.951Z,69.74
2016-02-24T04:10:01.986Z,70.03
2016-02-24T04:11:01.973Z,70.12
2016-02-24T04:12:01.991Z,69.65
2016-02-24T04:13:02.009Z,69.93
2016-02-24T04:14:02.012Z,70.03
2016-02-24T04:15:02.030Z,69.65
2016-02-24T04:16:02.049Z,69.74
2016-02-24T04:17:02.067Z,69.84
2016-02-24T04:18:02.069Z,70.12
2016-02-24T04:19:02.119Z,70.21
2016-02-24T04:20:02.105Z,70.12
2016-02-24T04:21:02.125Z,70.12
2016-02-24T04:22:02.143Z,70.12
2016-02-24T04:23:02.161Z,70.12
2016-02-24T04:24:02.180Z,70.21
2016-02-24T04:25:02.182Z,70.12
2016-02-24T04:26:02.201Z,70.03
2016-02-24T04:27:02.219Z,70.12
2016-02-24T04:28:02.238Z,70.21
2016-02-24T04:29:02.255Z,70.4
2016-02-24T04:30:02.257Z,70.12
2016-02-24T04:31:02.277Z,70.21
2016-02-24T04:32:02.295Z,70.4
2016-02-24T04:33:02.298Z,70.21
2016-02-24T04:34:02.332Z,70.12
2016-02-24T04:35:02.334Z,70.03
2016-02-24T04:36:02.352Z,70.12
2016-02-24T04:37:02.371Z,70.12
2016-02-24T04:38:02.389Z,70.31
2016-02-24T04:39:02.392Z,70.5
2016-02-24T04:40:02.425Z,70.5
2016-02-24T04:41:02.428Z,70.69
2016-02-24T04:42:02.447Z,70.5
2016-02-24T04:43:02.481Z,70.31
2016-02-24T04:44:02.468Z,70.4
2016-02-24T04:45:02.517Z,70.4
2016-02-24T04:46:02.519Z,70.5
2016-02-24T04:47:02.523Z,70.59
2016-02-24T04:48:02.525Z,70.59
2016-02-24T04:49:02.544Z,70.69
2016-02-24T04:50:02.593Z,70.59
2016-02-24T04:51:02.580Z,70.5
2016-02-24T04:52:02.599Z,70.5
2016-02-24T04:53:02.616Z,70.59
2016-02-24T04:54:02.624Z,71.26
2016-02-24T04:55:02.642Z,70.98
2016-02-24T04:56:02.660Z,70.98
2016-02-24T04:57:02.663Z,70.88
2016-02-24T04:58:02.681Z,70.98
2016-02-24T04:59:02.714Z,70.98
2016-02-24T05:00:02.717Z,70.98
2016-02-24T05:01:02.736Z,70.88
2016-02-24T05:02:02.755Z,71.07
2016-02-24T05:03:02.757Z,70.59
2016-02-24T05:04:02.619Z,70.59
2016-02-24T05:05:02.794Z,70.88
2016-02-24T05:06:02.796Z,70.88
2016-02-24T05:07:02.830Z,70.88
2016-02-24T05:08:02.833Z,71.07
2016-02-24T05:09:02.851Z,70.78
2016-02-24T05:10:02.869Z,70.78
2016-02-24T05:11:02.872Z,70.5
2016-02-24T05:12:02.907Z,70.59
2016-02-24T05:13:02.909Z,70.78
2016-02-24T05:14:02.927Z,70.69
2016-02-24T05:15:02.946Z,70.59
2016-02-24T05:16:02.949Z,70.31
2016-02-24T05:17:02.967Z,70.31
2016-02-24T05:18:02.985Z,70.5
2016-02-24T05:19:03.003Z,70.5
2016-02-24T05:20:03.021Z,70.31
2016-02-24T05:21:03.023Z,70.31
2016-02-24T05:22:03.059Z,70.31
2016-02-24T05:23:03.061Z,70.31
2016-02-24T05:24:03.079Z,70.4
2016-02-24T05:25:03.098Z,70.59
2016-02-24T05:26:03.116Z,70.59
2016-02-24T05:27:03.119Z,70.4
2016-02-24T05:28:03.137Z,70.4
2016-02-24T05:29:03.139Z,70.31
2016-02-24T05:30:03.173Z,70.4
2016-02-24T05:31:03.175Z,70.59
2016-02-24T05:32:03.194Z,70.69
2016-02-24T05:33:03.213Z,70.5
2016-02-24T05:34:03.230Z,70.78
2016-02-24T05:35:03.234Z,70.98
2016-02-24T05:36:03.268Z,70.98
2016-02-24T05:37:03.270Z,70.98
2016-02-24T05:38:03.289Z,71.07
2016-02-24T05:39:03.307Z,71.07
2016-02-24T05:40:03.310Z,70.69
2016-02-24T05:41:03.327Z,70.88
2016-02-24T05:42:03.346Z,70.78
2016-02-24T05:43:03.365Z,70.88
2016-02-24T05:44:03.382Z,70.88
2016-02-24T05:45:03.386Z,70.88
2016-02-24T05:46:03.420Z,70.88
2016-02-24T05:47:03.422Z,70.98
2016-02-24T05:48:03.425Z,70.78
2016-02-24T05:49:03.443Z,70.69
2016-02-24T05:50:03.477Z,70.98
2016-02-24T05:51:03.479Z,70.98
2016-02-24T05:52:03.498Z,70.78
2016-02-24T05:53:03.517Z,70.98
2016-02-24T05:54:03.535Z,71.17
2016-02-24T05:55:03.554Z,71.26
2016-02-24T05:56:03.556Z,70.98
2016-02-24T05:57:03.575Z,71.17
2016-02-24T05:58:03.592Z,70.98
2016-02-24T05:59:03.611Z,71.26
2016-02-24T06:00:03.613Z,71.26
2016-02-24T06:01:03.460Z,71.07
2016-02-24T06:02:03.649Z,71.55
2016-02-24T06:03:03.653Z,71.36
2016-02-24T06:04:03.702Z,70.98
2016-02-24T06:05:03.689Z,71.55
2016-02-24T06:06:03.708Z,70.69
2016-02-24T06:07:03.741Z,70.78
2016-02-24T06:08:03.729Z,70.69
2016-02-24T06:09:03.748Z,71.07
2016-02-24T06:10:03.766Z,71.45
2016-02-24T06:11:03.769Z,71.36
2016-02-24T06:12:03.803Z,71.26
2016-02-24T06:13:03.806Z,71.45
2016-02-24T06:14:03.824Z,71.45
2016-02-24T06:15:03.827Z,71.45
2016-02-24T06:16:03.861Z,71.45
2016-02-24T06:17:03.878Z,71.36
2016-02-24T06:18:03.897Z,70.98
2016-02-24T06:19:03.900Z,71.36
2016-02-24T06:20:03.919Z,71.26
2016-02-24T06:21:03.936Z,71.26
2016-02-24T06:22:03.955Z,71.26
2016-02-24T06:23:03.958Z,71.26
2016-02-24T06:24:03.976Z,71.26
2016-02-24T06:25:03.979Z,71.36
2016-02-24T06:26:03.996Z,71.36
2016-02-24T06:27:04.015Z,71.36
2016-02-24T06:28:04.032Z,71.36
2016-02-24T06:29:04.051Z,71.07
2016-02-24T06:30:04.054Z,71.55
2016-02-24T06:31:04.073Z,71.64
2016-02-24T06:32:04.091Z,71.26
2016-02-24T06:33:04.109Z,71.26
2016-02-24T06:34:04.112Z,71.55
2016-02-24T06:35:04.130Z,71.17
2016-02-24T06:36:04.134Z,71.55
2016-02-24T06:37:04.167Z,71.55
2016-02-24T06:38:04.185Z,71.17
2016-02-24T06:39:04.031Z,71.26
2016-02-24T06:40:04.206Z,71.45
2016-02-24T06:41:04.225Z,71.17
2016-02-24T06:42:04.227Z,71.17
2016-02-24T06:43:04.246Z,71.36
2016-02-24T06:44:04.326Z,71.26
2016-02-24T06:45:04.306Z,71.36
2016-02-24T06:46:04.293Z,71.17
2016-02-24T06:47:07.054Z,71.36
2016-02-24T06:48:04.313Z,71.26
2016-02-24T06:49:04.332Z,71.64
2016-02-24T06:50:04.366Z,71.26
2016-02-24T06:51:04.353Z,71.26
2016-02-24T06:52:04.371Z,71.26
2016-02-24T06:53:04.390Z,71.36
2016-02-24T06:54:04.408Z,71.36
2016-02-24T06:55:04.411Z,70.78
2016-02-24T06:56:04.429Z,71.36
2016-02-24T06:57:04.446Z,71.55
2016-02-24T06:58:04.482Z,71.26
2016-02-24T06:59:04.484Z,71.36
2016-02-24T07:00:04.487Z,71.36
2016-02-24T07:01:04.521Z,71.36
2016-02-24T07:02:04.524Z,70.78
2016-02-24T07:03:04.542Z,70.69
2016-02-24T07:04:04.544Z,70.98
2016-02-24T07:05:04.563Z,70.59
2016-02-24T07:06:04.596Z,70.78
2016-02-24T07:07:04.598Z,70.88
2016-02-24T07:08:04.618Z,70.88
2016-02-24T07:09:04.625Z,70.59
2016-02-24T07:10:04.643Z,71.26
2016-02-24T07:11:04.662Z,71.45
2016-02-24T07:12:04.680Z,71.17
2016-02-24T07:13:04.683Z,71.17
2016-02-24T07:14:04.700Z,71.26
2016-02-24T07:15:04.719Z,70.98
2016-02-24T07:16:04.722Z,71.26
2016-02-24T07:17:04.740Z,71.26
2016-02-24T07:18:04.775Z,71.07
2016-02-24T07:19:04.793Z,71.07
2016-02-24T07:20:04.795Z,71.36
2016-02-24T07:21:04.798Z,71.36
2016-02-24T07:22:04.816Z,71.45
2016-02-24T07:23:04.835Z,70.98
2016-02-24T07:24:04.852Z,70.78
2016-02-24T07:25:04.871Z,71.17
2016-02-24T07:26:04.890Z,71.07
2016-02-24T07:27:04.907Z,71.36
2016-02-24T07:28:04.911Z,71.26
2016-02-24T07:29:04.929Z,71.55
2016-02-24T07:30:04.948Z,71.55
2016-02-24T07:31:04.965Z,71.55
2016-02-24T07:32:04.968Z,71.36
2016-02-24T07:33:04.987Z,71.45
2016-02-24T07:34:05.004Z,71.36
2016-02-24T07:35:05.070Z,70.98
2016-02-24T07:36:05.041Z,70.98
2016-02-24T07:37:05.059Z,70.98
2016-02-24T07:38:05.047Z,70.78
2016-02-24T07:39:05.080Z,70.98
2016-02-24T07:40:05.083Z,70.78
2016-02-24T07:41:05.102Z,71.07
2016-02-24T07:42:05.119Z,70.88
2016-02-24T07:43:05.138Z,71.26
2016-02-24T07:44:05.141Z,70.4
2016-02-24T07:45:05.175Z,70.31
2016-02-24T07:46:05.193Z,70.5
2016-02-24T07:47:05.196Z,70.5
2016-02-24T07:48:05.214Z,71.07
2016-02-24T07:49:05.233Z,70.5
2016-02-24T07:50:05.251Z,70.59
2016-02-24T07:51:05.254Z,70.69
2016-02-24T07:52:05.303Z,70.5
2016-02-24T07:53:05.291Z,70.78
2016-02-24T07:54:05.293Z,70.5
2016-02-24T07:55:05.311Z,70.4
2016-02-24T07:56:05.346Z,70.31
2016-02-24T07:57:05.348Z,70.21
2016-02-24T07:58:05.351Z,70.69
2016-02-24T07:59:05.369Z,70.69
2016-02-24T08:00:05.387Z,70.88
2016-02-24T08:01:05.406Z,70.12
2016-02-24T08:02:05.423Z,70.03
2016-02-24T08:03:05.427Z,70.12
2016-02-24T08:04:05.476Z,69.93
2016-02-24T08:05:05.462Z,69.84
2016-02-24T08:06:05.482Z,70.03
2016-02-24T08:07:05.500Z,70.12
2016-02-24T08:08:05.518Z,70.31
2016-02-24T08:09:05.520Z,70.31
2016-02-24T08:10:05.539Z,70.21
2016-02-24T08:11:05.558Z,70.31
2016-02-24T08:12:05.576Z,70.78
2016-02-24T08:13:05.594Z,70.4
2016-02-24T08:14:05.597Z,70.25
2016-02-24T08:15:05.614Z,69.87
2016-02-24T08:16:05.633Z,70.15
2016-02-24T08:17:05.635Z,70.25
2016-02-24T08:18:05.654Z,70.35
2016-02-24T08:19:05.704Z,70.15
2016-02-24T08:20:05.691Z,69.68
2016-02-24T08:21:05.693Z,69.96
2016-02-24T08:22:05.727Z,70.15
2016-02-24T08:23:05.730Z,69.87
2016-02-24T08:24:05.749Z,70.06
2016-02-24T08:25:05.766Z,69.68
2016-02-24T08:26:05.785Z,70.06
2016-02-24T08:27:05.788Z,69.11
2016-02-24T08:28:05.806Z,69.4
2016-02-24T08:29:05.825Z,69.11
2016-02-24T08:30:05.843Z,69.11
2016-02-24T08:31:05.861Z,69.49
2016-02-24T08:32:05.879Z,69.02
2016-02-24T08:33:05.882Z,69.11
2016-02-24T08:34:05.916Z,70.06
2016-02-24T08:35:05.918Z,69.21
2016-02-24T08:36:05.937Z,69.4
2016-02-24T08:37:05.940Z,69.59
2016-02-24T08:38:05.958Z,69.87
2016-02-24T08:39:05.976Z,69.02
2016-02-24T08:40:05.995Z,69.3
2016-02-24T08:41:06.028Z,69.11
2016-02-24T08:42:06.031Z,69.59
2016-02-24T08:43:06.034Z,69.4
2016-02-24T08:44:06.052Z,69.4
2016-02-24T08:45:06.070Z,69.4
2016-02-24T08:46:06.089Z,69.49
2016-02-24T08:47:06.108Z,69.21
2016-02-24T08:48:06.110Z,69.68
2016-02-24T08:49:06.144Z,69.53
2016-02-24T08:50:06.147Z,69.05
2016-02-24T08:51:06.165Z,69.15
2016-02-24T08:52:06.168Z,68.86
2016-02-24T08:53:06.186Z,68.67
2016-02-24T08:54:06.204Z,68.29
2016-02-24T08:55:06.222Z,67.91
2016-02-24T08:56:06.241Z,68.01
2016-02-24T08:57:06.244Z,67.53
2016-02-24T08:58:06.262Z,68.1
2016-02-24T08:59:06.280Z,67.82
2016-02-24T09:00:06.299Z,67.72
2016-02-24T09:01:06.160Z,68.39
2016-02-24T09:02:06.335Z,67.53
2016-02-24T09:03:06.338Z,67.34
2016-02-24T09:04:06.356Z,67.72
2016-02-24T09:05:06.374Z,67.44
2016-02-24T09:06:06.393Z,67.72
2016-02-24T09:07:06.395Z,67.06
2016-02-24T09:08:06.429Z,67.91
2016-02-24T09:09:06.432Z,67.53
2016-02-24T09:10:06.451Z,67.53
2016-02-24T09:11:06.469Z,67.44
2016-02-24T09:12:06.487Z,67.15
2016-02-24T09:13:06.506Z,67.15
2016-02-24T09:14:06.508Z,66.67
2016-02-24T09:15:06.525Z,66.49
2016-02-24T09:16:06.545Z,66.58
2016-02-24T09:17:06.563Z,66.2
2016-02-24T09:18:06.581Z,66.2
2016-02-24T09:19:06.584Z,66.39
2016-02-24T09:20:06.602Z,66.39
2016-02-24T09:21:06.621Z,66.01
2016-02-24T09:22:06.639Z,65.82
2016-02-24T09:23:06.657Z,66.11
2016-02-24T09:24:06.675Z,66.39
2016-02-24T09:25:06.677Z,66.49
2016-02-24T09:26:06.713Z,66.3
2016-02-24T09:27:06.715Z,65.54
2016-02-24T09:28:06.733Z,65.35
2016-02-24T09:29:06.752Z,65.35
2016-02-24T09:30:06.770Z,65.25
2016-02-24T09:31:06.773Z,64.87
2016-02-24T09:32:06.791Z,64.87
2016-02-24T09:33:06.809Z,65.35
2016-02-24T09:34:06.826Z,65.35
2016-02-24T09:35:06.845Z,65.44
2016-02-24T09:36:06.848Z,64.87
2016-02-24T09:37:06.867Z,65.16
2016-02-24T09:38:06.885Z,64.97
2016-02-24T09:39:06.903Z,65.35
2016-02-24T09:40:06.922Z,64.21
2016-02-24T09:41:06.939Z,63.92
2016-02-24T09:42:06.943Z,64.02
2016-02-24T09:43:06.961Z,63.92
2016-02-24T09:44:06.978Z,63.54
2016-02-24T09:45:07.014Z,63.54
2016-02-24T09:46:07.016Z,63.35
2016-02-24T09:47:07.034Z,63.64
2016-02-24T09:48:07.037Z,63.07
2016-02-24T09:49:07.055Z,62.12
2016-02-24T09:50:07.074Z,61.83
2016-02-24T09:51:07.092Z,62.4
2016-02-24T09:52:07.110Z,62.31
2016-02-24T09:53:07.128Z,61.36
2016-02-24T09:54:07.147Z,61.26
2016-02-24T09:55:07.150Z,61.65
2016-02-24T09:56:07.168Z,61.74
2016-02-24T09:57:07.186Z,61.68
2016-02-24T09:58:07.205Z,61.29
2016-02-24T09:59:07.223Z,61.07
2016-02-24T10:00:07.257Z,61.01
2016-02-24T10:01:07.259Z,60.88
2016-02-24T10:02:07.262Z,61.07
2016-02-24T10:03:07.279Z,61.01
2016-02-24T10:04:07.299Z,61.29
2016-02-24T10:05:07.317Z,61.01
2016-02-24T10:06:07.382Z,61.17
2016-02-24T10:07:07.354Z,61.1
2016-02-24T10:08:07.356Z,60.82
2016-02-24T10:09:07.375Z,60.91
2016-02-24T10:10:07.393Z,61.1
2016-02-24T10:11:07.411Z,60.91
2016-02-24T10:12:07.429Z,60.91
2016-02-24T10:13:07.448Z,61.1
2016-02-24T10:14:07.451Z,60.63
2016-02-24T10:15:07.469Z,60.72
2016-02-24T10:16:07.487Z,60.53
2016-02-24T10:17:07.506Z,60.91
2016-02-24T10:18:07.539Z,60.44
2016-02-24T10:19:07.542Z,60.91
2016-02-24T10:20:07.545Z,60.82
2016-02-24T10:21:07.563Z,61.01
2016-02-24T10:22:07.425Z,60.44
2016-02-24T10:23:07.616Z,60.06
2016-02-24T10:24:07.618Z,59.99
2016-02-24T10:25:07.636Z,59.8
2016-02-24T10:26:07.655Z,58.95
2016-02-24T10:27:07.673Z,59.14
2016-02-24T10:28:07.691Z,58.57
2016-02-24T10:29:07.694Z,58.47
2016-02-24T10:30:07.712Z,58.57
2016-02-24T10:31:07.730Z,58.18
2016-02-24T10:32:07.749Z,58
2016-02-24T10:33:07.767Z,57.81
2016-02-24T10:34:07.786Z,57.62
2016-02-24T10:35:07.788Z,57.71
2016-02-24T10:36:07.807Z,57.62
2016-02-24T10:37:07.825Z,57.43
2016-02-24T10:38:07.843Z,57.33
2016-02-24T10:39:07.862Z,57.04
2016-02-24T10:40:07.879Z,56.85
2016-02-24T10:41:07.898Z,57.04
2016-02-24T10:42:07.901Z,57.14
2016-02-24T10:43:07.919Z,56.98
2016-02-24T10:44:07.954Z,56.38
2016-02-24T10:45:07.956Z,56.41
2016-02-24T10:46:07.974Z,56.22
2016-02-24T10:47:08.008Z,55.93
2016-02-24T10:48:08.011Z,56.31
2016-02-24T10:49:08.028Z,56.41
2016-02-24T10:50:07.875Z,56.51
2016-02-24T10:51:08.066Z,56.7
2016-02-24T10:52:08.084Z,56.7
2016-02-24T10:53:08.103Z,56.7
2016-02-24T10:54:08.105Z,56.79
2016-02-24T10:55:08.123Z,56.7
2016-02-24T10:56:08.173Z,56.6
2016-02-24T10:57:08.160Z,56.6
2016-02-24T10:58:08.177Z,56.41
2016-02-24T10:59:08.197Z,56.79
2016-02-24T11:00:08.215Z,56.41
2016-02-24T11:01:08.233Z,56.41
2016-02-24T11:02:08.236Z,56.88
2016-02-24T11:03:08.270Z,56.31
2016-02-24T11:04:08.288Z,56.7
2016-02-24T11:05:08.291Z,55.74
2016-02-24T11:06:08.309Z,55.93
2016-02-24T11:07:08.327Z,55.74
2016-02-24T11:08:08.345Z,55.55
2016-02-24T11:09:08.379Z,55.93
2016-02-24T11:10:08.382Z,55.55
2016-02-24T11:11:08.385Z,55.17
2016-02-24T11:12:08.420Z,55.65
2016-02-24T11:13:08.423Z,55.93
2016-02-24T11:14:08.440Z,55.74
2016-02-24T11:15:08.490Z,55.55
2016-02-24T11:16:08.477Z,55.65
2016-02-24T11:17:08.495Z,54.98
2016-02-24T11:18:08.513Z,55.27
2016-02-24T11:19:08.532Z,55.74
2016-02-24T11:20:08.550Z,55.65
2016-02-24T11:21:08.568Z,55.17
2016-02-24T11:22:08.572Z,54.69
2016-02-24T11:23:08.605Z,54.98
2016-02-24T11:24:08.623Z,55.27
2016-02-24T11:25:08.625Z,54.6
2016-02-24T11:26:08.660Z,54.03
2016-02-24T11:27:08.678Z,54.03
2016-02-24T11:28:08.681Z,54.22
2016-02-24T11:29:08.699Z,54.13
2016-02-24T11:30:08.717Z,54.32
2016-02-24T11:31:08.736Z,53.84
2016-02-24T11:32:08.754Z,54.69
2016-02-24T11:33:08.771Z,54.69
2016-02-24T11:34:08.791Z,53.65
2016-02-24T11:35:08.809Z,53.94
2016-02-24T11:36:08.827Z,53.58
2016-02-24T11:37:08.846Z,53.58
2016-02-24T11:38:08.848Z,54.15
2016-02-24T11:39:08.867Z,53.87
2016-02-24T11:40:08.901Z,53.96
2016-02-24T11:41:08.918Z,53.87
2016-02-24T11:42:08.937Z,54.25
2016-02-24T11:43:08.940Z,53.67
2016-02-24T11:44:08.958Z,53.3
2016-02-24T11:45:08.976Z,53.67
2016-02-24T11:46:09.011Z,53.39
2016-02-24T11:47:09.013Z,53.58
2016-02-24T11:48:09.048Z,52.72
2016-02-24T11:49:09.050Z,52.92
2016-02-24T11:50:09.067Z,53.39
2016-02-24T11:51:09.102Z,52.82
2016-02-24T11:52:09.105Z,52.44
2016-02-24T11:53:09.123Z,53.27
2016-02-24T11:54:09.125Z,52.41
2016-02-24T11:55:09.144Z,53.08
2016-02-24T11:56:09.162Z,52.8
2016-02-24T11:57:09.197Z,53.84
2016-02-24T11:58:09.214Z,52.7
2016-02-24T11:59:09.232Z,53.17
2016-02-24T12:00:09.251Z,53.36
2016-02-24T12:01:09.269Z,53.17
2016-02-24T12:02:09.272Z,53.65
2016-02-24T12:03:09.291Z,53.27
2016-02-24T12:04:09.309Z,53.65
2016-02-24T12:05:09.329Z,53.65
2016-02-24T12:06:09.347Z,54.6
2016-02-24T12:07:09.365Z,54.69
2016-02-24T12:08:09.384Z,55.08
2016-02-24T12:09:09.403Z,55.55
2016-02-24T12:10:09.420Z,55.55
2016-02-24T12:11:09.423Z,55.83
2016-02-24T12:12:09.458Z,55.74
2016-02-24T12:13:09.460Z,55.27
2016-02-24T12:14:09.478Z,55.65
2016-02-24T12:15:09.497Z,56.63
2016-02-24T12:16:09.514Z,56.31
2016-02-24T12:17:09.533Z,57.01
2016-02-24T12:18:09.552Z,56.72
2016-02-24T12:19:09.570Z,56.63
2016-02-24T12:20:09.588Z,57.01
2016-02-24T12:21:09.607Z,57.01
2016-02-24T12:22:09.641Z,57.29
2016-02-24T12:23:09.643Z,57.58
2016-02-24T12:24:09.661Z,57.39
2016-02-24T12:25:09.680Z,57.2
2016-02-24T12:26:09.698Z,57.39
2016-02-24T12:27:09.716Z,56.82
2016-02-24T12:28:09.719Z,57.39
2016-02-24T12:29:09.737Z,57.39
2016-02-24T12:30:09.756Z,57.1
2016-02-24T12:31:09.774Z,56.92
2016-02-24T12:32:09.807Z,56.82
2016-02-24T12:33:09.826Z,56.82
2016-02-24T12:34:09.828Z,57.1
2016-02-24T12:35:09.847Z,57.01
2016-02-24T12:36:09.881Z,57.01
2016-02-24T12:37:09.883Z,56.72
2016-02-24T12:38:09.902Z,56.63
2016-02-24T12:39:09.921Z,56.82
2016-02-24T12:40:09.939Z,56.92
2016-02-24T12:41:09.956Z,56.72
2016-02-24T12:42:09.976Z,56.82
2016-02-24T12:43:09.994Z,56.75
2016-02-24T12:44:10.012Z,56.72
2016-02-24T12:45:10.031Z,56.53
2016-02-24T12:46:10.047Z,56.75
2016-02-24T12:47:10.055Z,56.75
2016-02-24T12:48:10.047Z,56.65
2016-02-24T12:49:10.070Z,56.18
2016-02-24T12:50:10.063Z,56.09
2016-02-24T12:51:10.072Z,55.8
2016-02-24T12:52:10.102Z,54.85
2016-02-24T12:53:10.101Z,54.47
2016-02-24T12:54:10.115Z,54.85
2016-02-24T12:55:10.146Z,54.27
2016-02-24T12:56:10.145Z,54.47